Time;durP1;ratioP1;P1;durP2;ratioP2;P2;SDS_P1;SDS_P2;PMS_P1;PMS_P2;Temp;Humidity;BMP_temperature;BMP_pressure;BME280_temperature;BME280_humidity;BME280_pressure;Samples;Min_cycle;Max_cycle;Signal;HPM_P1;HPM_P2
2022/05/29 00:01:18;;;;;;;1.57;1.47;;;7.20;99.90;7.10;100356.00;;;;4956500;28;87087;-67
2022/05/29 00:03:45;;;;;;;1.80;1.00;;;7.60;99.90;7.10;100371.00;;;;4957191;28;87766;-68
2022/05/29 00:06:23;;;;;;;2.30;0.87;;;7.20;99.90;7.00;100354.00;;;;4956468;28;88908;-69
2022/05/29 00:08:49;;;;;;;2.83;1.13;;;7.10;99.90;7.00;100363.00;;;;4935913;28;116174;-67
2022/05/29 00:11:15;;;;;;;6.00;1.27;;;7.00;99.90;7.00;100364.00;;;;4970293;28;109530;-68
2022/05/29 00:13:42;;;;;;;3.43;1.00;;;7.10;99.90;7.00;100359.00;;;;4956844;28;87435;-67
2022/05/29 00:16:08;;;;;;;1.87;0.67;;;7.10;99.90;7.00;100352.00;;;;4955464;28;118396;-67
2022/05/29 00:18:36;;;;;;;1.03;0.93;;;7.20;99.90;7.00;100346.00;;;;4956046;28;92097;-67
2022/05/29 00:21:02;;;;;;;1.00;0.87;;;7.10;99.90;7.00;100352.00;;;;4937963;28;87914;-68
2022/05/29 00:23:28;;;;;;;1.90;1.17;;;7.10;99.90;7.00;100338.00;;;;4938824;28;88018;-67
2022/05/29 00:25:54;;;;;;;2.73;1.00;;;7.00;99.90;6.90;100346.00;;;;4934605;28;89343;-67
2022/05/29 00:28:21;;;;;;;1.17;0.93;;;7.40;99.90;6.90;100343.00;;;;4926144;28;106399;-67
2022/05/29 00:30:47;;;;;;;1.60;0.90;;;7.00;99.90;6.90;100346.00;;;;4956554;28;87669;-68
2022/05/29 00:33:17;;;;;;;2.60;1.20;;;7.00;99.90;6.80;100343.00;;;;4955999;28;88798;-67
2022/05/29 00:35:42;;;;;;;1.90;1.27;;;7.20;99.90;6.80;100341.00;;;;4956057;28;88578;-68
2022/05/29 00:38:11;;;;;;;0.73;0.60;;;6.90;99.90;6.70;100336.00;;;;4937026;28;108420;-67
2022/05/29 00:40:56;;;;;;;1.90;1.13;;;6.90;99.90;6.70;100336.00;;;;4934248;28;87875;-67
2022/05/29 00:43:22;;;;;;;0.73;0.73;;;6.80;99.90;6.70;100339.00;;;;4917786;28;87709;-67
2022/05/29 00:46:00;;;;;;;3.67;1.03;;;6.80;99.90;6.60;100331.00;;;;4936977;28;88371;-67
2022/05/29 00:48:27;;;;;;;0.80;0.80;;;6.80;99.90;6.60;100330.00;;;;4960057;28;88948;-68
2022/05/29 00:50:58;;;;;;;0.93;0.93;;;6.80;99.90;6.60;100331.00;;;;4956482;28;86945;-68
2022/05/29 00:53:24;;;;;;;2.77;0.50;;;6.70;99.90;6.60;100338.00;;;;4951667;28;102134;-68
2022/05/29 00:55:57;;;;;;;1.53;1.13;;;6.70;99.90;6.50;100336.00;;;;4964817;28;117425;-68
2022/05/29 00:58:24;;;;;;;2.03;0.80;;;6.70;99.90;6.50;100333.00;;;;4949587;28;108889;-68
2022/05/29 01:00:54;;;;;;;0.87;0.77;;;7.00;99.90;6.50;100342.00;;;;4934729;28;111679;-68
2022/05/29 01:03:20;;;;;;;2.47;1.03;;;6.60;99.90;6.40;100335.00;;;;4923223;28;102040;-68
2022/05/29 01:05:46;;;;;;;2.30;0.87;;;6.50;99.90;6.40;100321.00;;;;4935194;28;117493;-68
2022/05/29 01:08:24;;;;;;;1.37;1.27;;;6.50;99.90;6.30;100326.00;;;;4935844;28;87742;-67
2022/05/29 01:10:49;;;;;;;2.60;1.00;;;6.50;99.90;6.30;100308.00;;;;4936437;28;87626;-68
2022/05/29 01:13:48;;;;;;;1.90;1.23;;;6.50;99.90;6.20;100317.00;;;;4936154;28;87723;-67
2022/05/29 01:16:39;;;;;;;0.70;0.70;;;6.40;99.90;6.20;100306.00;;;;4935737;28;87361;-67
2022/05/29 01:19:52;;;;;;;1.27;1.17;;;6.40;99.90;6.20;100319.00;;;;4965439;28;107953;-67
2022/05/29 01:23:10;;;;;;;2.40;1.27;;;6.40;99.90;6.20;100304.00;;;;4933270;28;87627;-68
2022/05/29 01:26:13;;;;;;;5.87;1.63;;;6.30;99.90;6.10;100310.00;;;;4922927;28;88790;-67
2022/05/29 01:28:52;;;;;;;0.80;0.80;;;6.30;99.90;6.10;100314.00;;;;4969664;28;90425;-68
2022/05/29 01:31:56;;;;;;;0.87;0.63;;;6.30;99.90;6.10;100313.00;;;;4936117;28;111238;-67
2022/05/29 01:34:54;;;;;;;1.80;1.17;;;6.30;99.90;6.10;100311.00;;;;4970180;28;99909;-67
2022/05/29 01:37:32;;;;;;;0.73;0.73;;;6.30;99.90;6.10;100307.00;;;;4954549;28;87897;-68
2022/05/29 01:40:23;;;;;;;3.07;0.90;;;6.30;99.90;6.10;100307.00;;;;4954472;28;107742;-67
2022/05/29 01:43:09;;;;;;;1.40;1.07;;;6.30;99.90;6.10;100305.00;;;;4936574;28;88218;-67
2022/05/29 01:45:53;;;;;;;0.90;0.90;;;6.20;99.90;6.10;100310.00;;;;4970937;28;87028;-67
2022/05/29 01:48:47;;;;;;;3.17;1.07;;;6.20;99.90;6.00;100302.00;;;;4967621;28;87841;-67
2022/05/29 01:51:23;;;;;;;1.10;0.70;;;6.20;99.90;6.00;100306.00;;;;4970210;28;90747;-67
2022/05/29 01:54:34;;;;;;;1.23;0.97;;;6.20;99.90;6.00;100306.00;;;;4937008;28;89458;-68
2022/05/29 01:57:09;;;;;;;5.10;1.17;;;5.70;99.90;6.00;100300.00;;;;4873738;28;88035;-67
2022/05/29 01:59:44;;;;;;;0.70;0.70;;;6.10;99.90;6.00;100294.00;;;;4873574;28;95407;-67
2022/05/29 02:02:15;;;;;;;2.30;0.77;;;6.40;99.90;5.90;100297.00;;;;4901229;28;111563;-67
2022/05/29 02:04:50;;;;;;;1.50;1.40;;;6.10;99.90;5.90;100294.00;;;;4969906;28;87874;-67
2022/05/29 02:07:48;;;;;;;6.17;1.47;;;6.00;99.90;5.90;100303.00;;;;4969003;28;100126;-67
2022/05/29 02:10:39;;;;;;;1.70;1.17;;;6.00;99.90;5.80;100304.00;;;;4967931;28;87891;-68
2022/05/29 02:13:27;;;;;;;1.80;1.00;;;6.00;99.90;5.80;100306.00;;;;4954253;28;101100;-68
2022/05/29 02:16:12;;;;;;;1.30;1.17;;;6.00;99.90;5.80;100304.00;;;;4952730;28;102596;-68
2022/05/29 02:19:02;;;;;;;2.00;0.87;;;6.00;99.90;5.70;100299.00;;;;4936991;28;88299;-68
2022/05/29 02:21:53;;;;;;;1.80;0.70;;;5.90;99.90;5.70;100299.00;;;;4932414;28;102024;-68
2022/05/29 02:24:27;;;;;;;1.37;0.90;;;5.80;99.90;5.60;100295.00;;;;4945858;28;90619;-67
2022/05/29 02:27:28;;;;;;;5.13;1.20;;;5.80;99.90;5.60;100299.00;;;;4955179;28;110748;-67
2022/05/29 02:29:57;;;;;;;1.67;0.93;;;5.80;99.90;5.60;100296.00;;;;4940195;28;87796;-68
2022/05/29 02:32:50;;;;;;;0.70;0.70;;;5.80;99.90;5.50;100291.00;;;;4957673;28;102196;-68
2022/05/29 02:35:33;;;;;;;2.50;1.00;;;5.80;99.90;5.50;100296.00;;;;4958427;28;87722;-68
2022/05/29 02:38:29;;;;;;;7.07;1.93;;;5.70;99.90;5.50;100301.00;;;;4954384;28;107533;-68
2022/05/29 02:41:07;;;;;;;1.40;1.30;;;5.70;99.90;5.60;100291.00;;;;4970230;28;86996;-68
2022/05/29 02:44:05;;;;;;;3.50;0.97;;;5.70;99.90;5.60;100282.00;;;;4918801;28;103931;-67
2022/05/29 02:46:38;;;;;;;1.80;0.60;;;5.70;99.90;5.60;100279.00;;;;4957122;28;87745;-67
2022/05/29 02:49:30;;;;;;;0.77;0.70;;;5.70;99.90;5.60;100283.00;;;;4946696;28;100667;-67
2022/05/29 02:52:08;;;;;;;0.93;0.87;;;5.70;99.90;5.60;100277.00;;;;4973255;28;87971;-68
2022/05/29 02:54:34;;;;;;;1.87;1.50;;;5.70;99.90;5.60;100277.00;;;;4923070;28;87820;-67
2022/05/29 02:57:02;;;;;;;0.80;0.80;;;5.70;99.90;5.50;100270.00;;;;4956555;28;89293;-68
2022/05/29 02:59:36;;;;;;;2.37;1.17;;;5.70;99.90;5.50;100283.00;;;;4958209;28;88242;-68
2022/05/29 03:02:51;;;;;;;1.60;0.93;;;5.70;99.90;5.40;100279.00;;;;4938382;28;99042;-68
2022/05/29 03:05:55;;;;;;;0.87;0.70;;;5.60;99.90;5.40;100274.00;;;;4915755;28;87915;-68
2022/05/29 03:09:07;;;;;;;2.53;1.10;;;5.60;99.90;5.30;100271.00;;;;4942817;28;87304;-68
2022/05/29 03:11:40;;;;;;;1.77;0.80;;;5.60;99.90;5.30;100268.00;;;;4972464;28;87961;-68
2022/05/29 03:14:34;;;;;;;2.10;1.03;;;5.50;99.90;5.30;100281.00;;;;4972124;28;87902;-68
2022/05/29 03:17:09;;;;;;;1.13;0.73;;;5.50;99.90;5.30;100271.00;;;;4957493;28;88982;-68
2022/05/29 03:20:16;;;;;;;1.43;1.10;;;5.50;99.90;5.20;100269.00;;;;4972182;28;87928;-67
2022/05/29 03:23:03;;;;;;;0.80;0.80;;;5.40;99.90;5.10;100267.00;;;;4938477;28;88098;-67
2022/05/29 03:25:37;;;;;;;9.03;0.80;;;5.40;99.90;5.20;100269.00;;;;4912415;28;87786;-70
2022/05/29 03:28:11;;;;;;;3.00;1.47;;;5.30;99.90;5.20;100269.00;;;;4955062;28;87780;-68
2022/05/29 03:30:39;;;;;;;3.53;1.00;;;5.40;99.90;5.20;100278.00;;;;4965188;28;110570;-67
2022/05/29 03:33:07;;;;;;;3.30;1.53;;;5.30;99.90;5.20;100270.00;;;;4968960;28;88728;-69
2022/05/29 03:35:45;;;;;;;2.80;1.03;;;5.30;99.90;5.20;100270.00;;;;4958253;28;87147;-69
2022/05/29 03:38:10;;;;;;;1.00;0.90;;;5.30;99.90;5.20;100274.00;;;;4938402;28;88050;-67
2022/05/29 03:40:38;;;;;;;0.77;0.77;;;5.40;99.90;5.20;100268.00;;;;4955545;28;116874;-67
2022/05/29 03:43:04;;;;;;;4.77;1.23;;;5.40;99.90;5.30;100275.00;;;;4971257;28;88770;-67
2022/05/29 03:45:29;;;;;;;3.27;1.47;;;5.40;99.90;5.30;100275.00;;;;4956706;28;101676;-69
2022/05/29 03:47:56;;;;;;;0.67;0.67;;;5.50;99.90;5.40;100273.00;;;;4961269;28;110163;-67
2022/05/29 03:50:23;;;;;;;3.27;1.10;;;5.50;99.90;5.40;100274.00;;;;4957021;28;87980;-67
2022/05/29 03:52:49;;;;;;;1.63;1.40;;;5.60;99.90;5.50;100274.00;;;;4971148;28;93482;-67
2022/05/29 03:55:20;;;;;;;2.70;1.60;;;5.70;99.90;5.50;100278.00;;;;4955857;28;110755;-67
2022/05/29 03:57:47;;;;;;;7.53;1.73;;;5.60;99.90;5.60;100276.00;;;;4957643;28;87714;-69
2022/05/29 04:00:14;;;;;;;2.37;1.47;;;5.70;99.90;5.70;100269.00;;;;4956490;28;105256;-67
2022/05/29 04:02:40;;;;;;;1.40;0.57;;;5.80;99.90;5.80;100276.00;;;;4937608;28;106638;-67
2022/05/29 04:05:09;;;;;;;1.63;1.07;;;5.90;99.90;5.90;100269.00;;;;4955918;28;107641;-67
2022/05/29 04:13:03;;;;;;;3.07;1.00;;;6.10;99.90;6.20;100259.00;;;;4940455;28;88664;-67
2022/05/29 04:15:29;;;;;;;1.37;1.27;;;6.30;99.90;6.30;100270.00;;;;4956753;28;87723;-67
2022/05/29 04:17:55;;;;;;;2.20;1.30;;;6.30;99.90;6.40;100274.00;;;;4955296;28;108296;-67
2022/05/29 04:20:21;;;;;;;1.83;1.30;;;6.50;99.90;6.60;100275.00;;;;4956143;28;118203;-68
2022/05/29 04:22:46;;;;;;;2.00;1.40;;;7.00;99.90;6.70;100269.00;;;;4956624;28;88225;-67
2022/05/29 04:25:12;;;;;;;3.47;1.07;;;6.80;99.90;6.80;100275.00;;;;4955775;28;109938;-67
2022/05/29 04:27:38;;;;;;;1.13;1.07;;;6.90;99.90;7.00;100271.00;;;;4957097;28;88210;-67
2022/05/29 04:30:06;;;;;;;1.30;1.20;;;7.20;99.90;7.10;100265.00;;;;4954725;28;118406;-67
2022/05/29 04:35:17;;;;;;;3.57;1.10;;;7.30;99.90;7.40;100271.00;;;;4953185;28;87871;-67
2022/05/29 04:37:42;;;;;;;2.10;1.37;;;7.50;99.90;7.60;100270.00;;;;4954590;28;108680;-67
2022/05/29 04:40:09;;;;;;;0.67;0.53;;;7.60;99.90;7.80;100275.00;;;;4951803;28;117811;-67
2022/05/29 04:42:35;;;;;;;5.83;1.37;;;7.80;99.90;8.00;100270.00;;;;4955703;28;88753;-67
2022/05/29 04:45:04;;;;;;;1.53;1.43;;;8.00;99.90;8.20;100269.00;;;;4956500;28;87740;-67
2022/05/29 04:47:30;;;;;;;1.90;0.80;;;8.20;99.90;8.40;100279.00;;;;4961225;28;100443;-67
2022/05/29 04:49:56;;;;;;;1.60;1.20;;;8.30;99.90;8.50;100277.00;;;;4954019;28;118877;-68
2022/05/29 04:52:21;;;;;;;1.93;1.10;;;8.50;99.90;8.70;100267.00;;;;4936160;28;107840;-67
2022/05/29 04:54:47;;;;;;;1.93;1.17;;;8.60;99.90;8.80;100264.00;;;;4956624;28;87887;-67
2022/05/29 04:57:13;;;;;;;0.93;0.83;;;8.80;99.90;9.00;100267.00;;;;4954234;28;109213;-67
2022/05/29 04:59:38;;;;;;;1.07;0.93;;;9.00;99.90;9.10;100264.00;;;;4955034;28;117046;-67
2022/05/29 05:02:05;;;;;;;3.20;1.40;;;9.10;99.90;9.30;100258.00;;;;4954227;28;109587;-67
2022/05/29 05:04:34;;;;;;;1.37;1.27;;;9.30;99.90;9.50;100258.00;;;;4970759;28;87882;-67
2022/05/29 05:07:00;;;;;;;1.63;0.93;;;9.50;99.90;9.60;100262.00;;;;4955366;28;108074;-67
2022/05/29 05:09:28;;;;;;;1.93;1.30;;;9.60;99.90;9.80;100255.00;;;;4954828;28;88621;-68
2022/05/29 05:11:54;;;;;;;3.57;1.03;;;9.70;99.90;10.00;100262.00;;;;4970245;28;87921;-67
2022/05/29 05:14:23;;;;;;;2.00;1.17;;;9.90;99.90;10.10;100266.00;;;;4956770;28;87063;-68
2022/05/29 05:16:48;;;;;;;1.50;1.07;;;10.10;99.90;10.20;100258.00;;;;4956578;28;88036;-68
2022/05/29 05:19:23;;;;;;;1.77;1.10;;;10.20;99.90;10.40;100254.00;;;;4955435;28;95168;-68
2022/05/29 05:21:49;;;;;;;1.70;0.93;;;10.40;99.90;10.60;100261.00;;;;4952704;28;108818;-67
2022/05/29 05:24:16;;;;;;;2.73;0.90;;;10.50;99.90;10.70;100270.00;;;;4920799;28;87574;-67
2022/05/29 05:26:42;;;;;;;4.47;0.83;;;10.60;99.90;10.80;100257.00;;;;4955469;28;87707;-68
2022/05/29 05:29:08;;;;;;;1.70;1.13;;;10.80;99.90;10.90;100253.00;;;;4955052;28;113250;-67
2022/05/29 05:31:33;;;;;;;1.33;0.83;;;10.90;99.90;11.10;100256.00;;;;4955262;28;87762;-67
2022/05/29 05:33:59;;;;;;;4.10;1.33;;;11.00;99.90;11.20;100260.00;;;;4967261;28;87849;-67
2022/05/29 05:36:25;;;;;;;2.53;0.97;;;11.20;99.90;11.30;100256.00;;;;4947441;28;87650;-68
2022/05/29 05:38:53;;;;;;;3.73;1.20;;;11.30;99.90;11.50;100255.00;;;;4961869;28;106413;-68
2022/05/29 05:41:19;;;;;;;1.77;0.50;;;11.40;99.90;11.60;100249.00;;;;4971827;28;87810;-66
2022/05/29 05:43:45;;;;;;;0.70;0.70;;;11.50;99.90;11.70;100258.00;;;;4963588;28;101477;-67
2022/05/29 05:46:13;;;;;;;1.90;0.73;;;11.60;99.90;11.80;100250.00;;;;4970749;28;109317;-67
2022/05/29 05:48:40;;;;;;;1.70;0.50;;;11.70;99.90;11.90;100256.00;;;;4965019;28;88285;-67
2022/05/29 05:51:07;;;;;;;0.87;0.73;;;11.90;99.90;12.00;100255.00;;;;4965173;28;88180;-67
2022/05/29 05:53:34;;;;;;;3.10;1.40;;;12.00;99.90;12.10;100259.00;;;;4966769;28;87821;-67
2022/05/29 05:56:06;;;;;;;3.80;1.30;;;12.10;99.90;12.10;100257.00;;;;4952992;28;87848;-67
2022/05/29 05:58:31;;;;;;;0.57;0.50;;;12.10;99.90;12.20;100245.00;;;;4950925;28;87976;-67
2022/05/29 06:00:57;;;;;;;2.77;0.93;;;12.20;99.90;12.20;100244.00;;;;4964925;28;114413;-67
2022/05/29 06:03:23;;;;;;;2.40;1.10;;;12.20;99.90;12.30;100258.00;;;;4970181;28;110816;-67
2022/05/29 06:05:48;;;;;;;1.43;0.83;;;12.30;99.90;12.40;100254.00;;;;4974480;28;107890;-67
2022/05/29 06:08:14;;;;;;;1.20;1.00;;;12.40;99.90;12.40;100248.00;;;;4971503;28;88828;-67
2022/05/29 06:10:40;;;;;;;5.20;1.30;;;12.40;99.90;12.60;100260.00;;;;4967852;28;117288;-67
2022/05/29 06:13:06;;;;;;;1.70;0.93;;;12.50;99.90;12.70;100250.00;;;;4969952;28;110370;-67
2022/05/29 06:15:33;;;;;;;1.60;0.70;;;12.70;99.90;12.90;100260.00;;;;4973147;28;97093;-67
2022/05/29 06:17:59;;;;;;;3.83;0.60;;;12.80;99.90;13.00;100254.00;;;;4970908;28;101728;-67
2022/05/29 06:20:31;;;;;;;4.73;1.07;;;12.90;99.70;13.00;100259.00;;;;4970720;28;109113;-67
2022/05/29 06:22:56;;;;;;;7.50;1.43;;;13.00;98.70;13.10;100263.00;;;;4971090;28;87879;-67
2022/05/29 06:25:22;;;;;;;2.90;0.90;;;13.00;98.30;13.20;100266.00;;;;4970299;28;106982;-67
2022/05/29 06:27:48;;;;;;;1.07;0.90;;;13.10;98.00;13.30;100266.00;;;;4971427;28;88601;-66
2022/05/29 06:30:16;;;;;;;1.93;0.93;;;13.30;98.10;13.50;100274.00;;;;4970812;28;114807;-67
2022/05/29 06:32:42;;;;;;;0.67;0.67;;;13.40;97.80;13.60;100269.00;;;;4972932;28;88323;-67
2022/05/29 06:35:11;;;;;;;2.30;1.00;;;13.60;97.40;13.70;100266.00;;;;4961787;28;89075;-66
2022/05/29 06:37:38;;;;;;;1.03;0.77;;;13.90;96.80;13.70;100270.00;;;;4964504;28;88525;-66
2022/05/29 06:40:05;;;;;;;4.03;0.93;;;13.60;96.50;13.80;100269.00;;;;4965426;28;88940;-66
2022/05/29 06:42:31;;;;;;;1.97;1.10;;;13.70;96.20;13.80;100275.00;;;;4961259;28;87625;-67
2022/05/29 06:44:58;;;;;;;3.77;0.97;;;13.70;96.30;14.00;100266.00;;;;4940619;28;87989;-66
2022/05/29 06:47:25;;;;;;;0.77;0.77;;;13.90;96.30;14.10;100259.00;;;;4972752;28;88577;-68
2022/05/29 06:49:51;;;;;;;1.33;0.87;;;14.00;95.20;14.20;100262.00;;;;4973686;28;88068;-67
2022/05/29 06:52:18;;;;;;;1.13;1.03;;;14.10;94.60;14.30;100259.00;;;;4972066;28;107351;-67
2022/05/29 06:54:44;;;;;;;2.47;0.97;;;14.20;94.40;14.40;100277.00;;;;4971466;28;87851;-68
2022/05/29 06:57:12;;;;;;;0.33;0.33;;;14.30;94.70;14.70;100270.00;;;;4972031;28;116387;-66
2022/05/29 07:08:31;;;;;;;2.40;0.70;;;15.30;92.10;15.50;100273.00;;;;4901367;28;87902;-68
2022/05/29 07:11:02;;;;;;;1.60;1.13;;;15.70;91.40;15.60;100275.00;;;;4935219;28;88980;-67
2022/05/29 07:13:31;;;;;;;2.70;0.60;;;15.50;90.40;15.80;100275.00;;;;4972280;28;103154;-67
2022/05/29 07:15:57;;;;;;;1.30;0.95;;;15.70;90.50;16.10;100281.00;;;;4955570;28;88513;-67
2022/05/29 07:18:23;;;;;;;4.43;1.00;;;15.90;90.00;16.30;100277.00;;;;4971754;28;109004;-67
2022/05/29 07:20:48;;;;;;;0.75;0.65;;;16.20;88.80;16.50;100276.00;;;;4972698;28;116078;-68
2022/05/29 07:23:16;;;;;;;1.90;0.88;;;16.30;86.90;16.60;100274.00;;;;4970308;28;111395;-68
2022/05/29 07:25:51;;;;;;;0.82;0.82;;;16.50;85.90;16.90;100269.00;;;;4973052;28;88697;-68
2022/05/29 07:28:17;;;;;;;0.57;0.47;;;16.70;85.70;17.10;100284.00;;;;4965382;28;117000;-67
2022/05/29 07:30:43;;;;;;;2.60;0.95;;;16.90;83.00;17.10;100277.00;;;;4972878;28;116046;-67
2022/05/29 07:33:09;;;;;;;0.43;0.43;;;17.00;81.50;17.10;100275.00;;;;4966151;28;88284;-68
2022/05/29 07:35:36;;;;;;;1.65;0.68;;;17.00;81.00;17.00;100287.00;;;;4973486;28;98134;-67
2022/05/29 07:38:01;;;;;;;0.73;0.73;;;16.90;80.70;17.00;100285.00;;;;4964300;28;116761;-67
2022/05/29 07:40:27;;;;;;;1.00;0.80;;;16.90;80.20;16.80;100285.00;;;;4972082;28;87848;-68
2022/05/29 07:45:37;;;;;;;1.83;0.60;;;16.70;79.30;16.60;100285.00;;;;4970908;28;87839;-67
2022/05/29 07:48:03;;;;;;;0.98;0.68;;;16.60;78.10;16.50;100281.00;;;;4968559;28;88297;-67
2022/05/29 07:50:29;;;;;;;3.15;1.40;;;16.50;77.80;16.50;100289.00;;;;4968072;28;106618;-68
2022/05/29 07:52:55;;;;;;;0.95;0.63;;;16.40;78.30;16.40;100296.00;;;;4965223;28;87631;-67
2022/05/29 07:55:21;;;;;;;0.70;0.63;;;16.30;78.20;16.30;100286.00;;;;4972135;28;108991;-68
2022/05/29 07:57:47;;;;;;;0.95;0.73;;;16.20;77.70;16.10;100305.00;;;;4973500;28;88121;-68
2022/05/29 08:00:18;;;;;;;1.48;1.17;;;16.10;77.50;15.90;100305.00;;;;4953920;28;109460;-68
2022/05/29 08:02:44;;;;;;;1.00;0.43;;;15.90;79.50;15.60;100304.00;;;;4965372;28;88087;-68
2022/05/29 08:05:14;;;;;;;0.93;0.93;;;15.60;82.30;15.20;100301.00;;;;4974221;28;88014;-68
2022/05/29 08:07:42;;;;;;;1.20;0.87;;;15.30;84.40;14.90;100308.00;;;;4972947;28;88414;-69
2022/05/29 08:10:10;;;;;;;1.05;0.80;;;15.00;89.00;14.40;100303.00;;;;4973026;28;95640;-68
2022/05/29 08:12:36;;;;;;;2.80;0.80;;;14.60;91.90;14.00;100314.00;;;;4971215;28;102448;-67
2022/05/29 08:15:03;;;;;;;0.90;0.70;;;14.20;94.20;13.50;100321.00;;;;4972384;28;96367;-68
2022/05/29 08:17:29;;;;;;;1.23;1.13;;;13.70;97.40;13.10;100311.00;;;;4972754;28;89012;-67
2022/05/29 08:19:55;;;;;;;0.83;0.67;;;13.40;99.10;12.90;100307.00;;;;4972996;28;87964;-68
2022/05/29 08:22:24;;;;;;;4.07;1.30;;;13.10;99.90;12.90;100305.00;;;;4956587;28;87785;-67
2022/05/29 08:30:40;;;;;;;3.70;1.10;;;13.10;99.90;13.40;100301.00;;;;4969430;28;87784;-69
2022/05/29 08:33:11;;;;;;;1.00;0.90;;;13.20;99.90;13.50;100309.00;;;;4939214;28;87257;-68
2022/05/29 08:35:40;;;;;;;0.80;0.60;;;13.40;99.90;13.70;100308.00;;;;4970330;28;88420;-68
2022/05/29 08:38:07;;;;;;;1.23;0.80;;;13.50;99.80;13.90;100312.00;;;;4971833;28;88250;-68
2022/05/29 08:40:40;;;;;;;1.63;1.00;;;13.70;99.40;14.00;100304.00;;;;4965795;28;88717;-68
2022/05/29 08:43:11;;;;;;;2.13;1.37;;;13.80;98.00;14.10;100300.00;;;;4949496;28;88576;-68
2022/05/29 08:45:38;;;;;;;4.83;0.70;;;14.00;97.00;14.20;100293.00;;;;4949668;28;87942;-68
2022/05/29 08:48:05;;;;;;;1.13;0.80;;;14.00;95.40;14.30;100289.00;;;;4953830;28;88478;-68
2022/05/29 08:50:47;;;;;;;1.97;0.90;;;14.20;95.20;14.60;100288.00;;;;4972008;28;88781;-67
2022/05/29 08:53:34;;;;;;;0.67;0.43;;;14.40;95.30;14.80;100290.00;;;;4972219;28;88042;-68
2022/05/29 08:56:32;;;;;;;1.30;0.70;;;14.60;94.60;15.00;100296.00;;;;4951967;28;87851;-68
2022/05/29 08:59:28;;;;;;;1.97;0.50;;;14.70;94.30;15.30;100285.00;;;;4953817;28;87121;-67
2022/05/29 09:02:23;;;;;;;2.50;1.20;;;15.00;93.90;15.70;100283.00;;;;4952506;28;107585;-67
2022/05/29 09:04:58;;;;;;;0.67;0.50;;;15.40;93.50;16.30;100272.00;;;;4949557;28;104651;-68
2022/05/29 09:07:26;;;;;;;2.72;1.08;;;15.90;92.60;16.60;100277.00;;;;4952902;28;97070;-68
2022/05/29 09:10:00;;;;;;;0.43;0.43;;;16.30;90.60;16.80;100281.00;;;;4953030;28;103012;-68
2022/05/29 09:12:34;;;;;;;0.75;0.75;;;16.50;89.10;16.80;100280.00;;;;4970926;28;108595;-67
2022/05/29 09:15:15;;;;;;;0.32;0.30;;;16.60;85.10;16.80;100279.00;;;;4948688;28;98501;-67
2022/05/29 09:17:51;;;;;;;0.52;0.35;;;16.70;83.60;16.80;100270.00;;;;4971186;28;87912;-67
2022/05/29 09:20:30;;;;;;;1.00;0.40;;;16.60;82.50;16.70;100271.00;;;;4971805;28;88329;-67
2022/05/29 09:23:02;;;;;;;0.52;0.52;;;16.70;80.70;16.70;100251.00;;;;4948620;28;88367;-67
2022/05/29 09:25:42;;;;;;;1.27;1.00;;;16.60;79.20;16.90;100263.00;;;;4967274;28;87011;-67
2022/05/29 09:28:15;;;;;;;4.22;0.50;;;16.70;78.70;17.20;100249.00;;;;4971829;28;87767;-68
2022/05/29 09:30:41;;;;;;;1.75;0.85;;;16.90;77.30;17.50;100258.00;;;;4953367;28;87913;-68
2022/05/29 09:33:24;;;;;;;0.85;0.60;;;17.20;69.70;17.80;100251.00;;;;4952504;28;113401;-67
2022/05/29 09:36:25;;;;;;;0.73;0.65;;;17.50;70.20;18.00;100242.00;;;;4953549;28;88155;-67
2022/05/29 09:39:09;;;;;;;1.25;0.80;;;17.70;67.40;18.10;100245.00;;;;4947255;28;87931;-67
2022/05/29 09:41:55;;;;;;;5.57;0.73;;;17.80;66.90;18.10;100231.00;;;;4952660;28;100889;-68
2022/05/29 09:44:22;;;;;;;0.60;0.50;;;17.90;66.30;18.30;100238.00;;;;4949998;28;103763;-67
2022/05/29 09:46:52;;;;;;;3.65;0.68;;;18.10;67.10;18.40;100240.00;;;;4971043;28;106078;-68
2022/05/29 09:49:41;;;;;;;1.85;0.38;;;18.20;67.00;18.60;100228.00;;;;4970421;28;105700;-68
2022/05/29 09:52:13;;;;;;;0.80;0.52;;;18.30;66.40;18.60;100238.00;;;;4967192;28;87358;-67
2022/05/29 09:54:51;;;;;;;0.30;0.30;;;18.40;66.20;18.60;100230.00;;;;4965569;28;88563;-68
2022/05/29 09:57:41;;;;;;;0.43;0.35;;;18.40;63.00;18.60;100237.00;;;;4951385;28;87741;-68
2022/05/29 10:00:37;;;;;;;0.95;0.52;;;18.40;62.60;18.50;100224.00;;;;4946753;28;89066;-68
2022/05/29 10:03:07;;;;;;;0.63;0.43;;;18.40;60.80;18.40;100228.00;;;;4970511;28;87997;-68
2022/05/29 10:05:38;;;;;;;0.98;0.68;;;18.30;61.00;18.40;100228.00;;;;4967266;28;105537;-68
2022/05/29 10:08:31;;;;;;;0.32;0.32;;;18.30;61.90;18.60;100227.00;;;;4953415;28;87958;-68
2022/05/29 10:11:24;;;;;;;1.73;0.60;;;18.40;62.60;18.90;100227.00;;;;4971481;28;87997;-68
2022/05/29 10:13:51;;;;;;;0.98;0.52;;;18.60;62.60;19.10;100223.00;;;;4966901;28;88852;-69
2022/05/29 10:16:39;;;;;;;0.45;0.30;;;18.80;61.00;19.20;100228.00;;;;4970855;28;88344;-68
2022/05/29 10:19:11;;;;;;;0.38;0.38;;;18.90;60.30;19.30;100234.00;;;;4952456;28;102164;-69
2022/05/29 10:21:49;;;;;;;1.13;0.88;;;19.30;60.40;19.40;100231.00;;;;4966391;28;87844;-68
2022/05/29 10:24:31;;;;;;;0.40;0.40;;;19.10;60.20;19.20;100225.00;;;;4948714;28;88158;-67
2022/05/29 10:27:01;;;;;;;0.73;0.60;;;19.00;58.40;19.00;100231.00;;;;4970635;28;88923;-68
2022/05/29 10:29:34;;;;;;;2.10;0.90;;;18.90;58.70;18.80;100223.00;;;;4971097;28;87812;-68
2022/05/29 10:32:04;;;;;;;3.35;0.52;;;18.70;58.50;18.70;100229.00;;;;4953589;28;87820;-68
2022/05/29 10:34:34;;;;;;;0.93;0.52;;;18.60;59.00;18.70;100230.00;;;;4948227;28;91182;-68
2022/05/29 10:37:01;;;;;;;0.50;0.50;;;18.60;59.30;18.80;100225.00;;;;4951781;28;88481;-68
2022/05/29 10:39:31;;;;;;;0.98;0.70;;;18.60;59.20;18.80;100219.00;;;;4951930;28;87923;-68
2022/05/29 10:41:58;;;;;;;0.32;0.32;;;18.60;58.70;18.80;100225.00;;;;4970635;28;108458;-68
2022/05/29 10:44:46;;;;;;;3.30;1.30;;;18.60;58.60;19.10;100223.00;;;;4966003;28;88535;-68
2022/05/29 10:47:46;;;;;;;1.90;0.70;;;18.80;58.70;19.40;100228.00;;;;4970494;28;87903;-69
2022/05/29 10:50:43;;;;;;;0.60;0.57;;;19.00;58.30;19.50;100220.00;;;;4951068;28;87802;-69
2022/05/29 10:54:03;;;;;;;0.50;0.50;;;19.20;56.70;19.40;100220.00;;;;4955005;28;88832;-68
2022/05/29 10:56:58;;;;;;;0.32;0.30;;;19.20;55.80;19.60;100216.00;;;;4937247;28;87837;-68
2022/05/29 11:00:03;;;;;;;0.50;0.50;;;19.30;56.20;20.00;100213.00;;;;4954736;28;110137;-68
2022/05/29 11:06:04;;;;;;;1.15;0.60;;;19.80;55.00;20.00;100213.00;;;;4950420;28;87689;-68
2022/05/29 11:09:10;;;;;;;0.50;0.43;;;19.90;53.90;20.10;100215.00;;;;4960855;28;87801;-69
2022/05/29 11:12:10;;;;;;;0.68;0.32;;;19.80;54.90;20.50;100214.00;;;;4928439;28;87768;-69
2022/05/29 11:15:21;;;;;;;0.82;0.50;;;20.10;55.60;20.80;100212.00;;;;4927802;28;87817;-69
2022/05/29 11:18:17;;;;;;;3.30;0.55;;;20.30;54.80;21.30;100217.00;;;;4943796;28;88340;-69
2022/05/29 11:21:16;;;;;;;3.05;0.63;;;20.80;54.50;21.90;100222.00;;;;4954282;28;88578;-68
2022/05/29 11:23:59;;;;;;;0.60;0.60;;;21.30;54.60;22.40;100215.00;;;;4933827;28;88849;-72
2022/05/29 11:26:49;;;;;;;0.60;0.43;;;21.70;53.60;22.60;100210.00;;;;4938786;28;88071;-72
2022/05/29 11:29:51;;;;;;;0.65;0.35;;;22.10;51.70;22.70;100201.00;;;;4953335;28;88034;-73
2022/05/29 11:32:55;;;;;;;0.77;0.40;;;22.20;51.00;22.90;100203.00;;;;4914289;28;89700;-72
2022/05/29 11:35:42;;;;;;;0.40;0.40;;;22.40;50.60;23.10;100195.00;;;;4932999;28;107695;-73
2022/05/29 11:38:44;;;;;;;0.70;0.60;;;22.60;50.00;23.40;100207.00;;;;4973270;28;87884;-73
2022/05/29 11:41:18;;;;;;;0.30;0.30;;;22.80;48.60;23.40;100209.00;;;;4950248;28;88052;-74
2022/05/29 11:44:18;;;;;;;0.70;0.50;;;22.90;48.50;23.40;100192.00;;;;4954480;28;103852;-73
2022/05/29 11:52:57;;;;;;;0.20;0.20;;;22.80;46.30;23.20;100187.00;;;;4955278;28;89172;-72
2022/05/29 11:55:29;;;;;;;0.20;0.20;;;22.80;46.90;23.30;100182.00;;;;4969554;28;88019;-73
2022/05/29 11:58:07;;;;;;;0.70;0.40;;;22.80;46.70;23.40;100174.00;;;;4954022;28;88590;-73
2022/05/29 12:00:39;;;;;;;0.20;0.20;;;22.90;46.80;23.50;100178.00;;;;4938630;28;87991;-73